Time;durP1;ratioP1;P1;durP2;ratioP2;P2;SDS_P1;SDS_P2;PMS_P1;PMS_P2;Temp;Humidity;BMP_temperature;BMP_pressure;BME280_temperature;BME280_humidity;BME280_pressure;Samples;Min_cycle;Max_cycle;Signal;HPM_P1;HPM_P2
2022/03/05 00:00:26;;;;;;;38.33;21.08;;;;;;;1.96;69.51;101937.34;4972339;28;20018;-75
2022/03/05 00:02:51;;;;;;;41.15;20.88;;;;;;;1.94;69.53;101939.13;4972478;28;20034;-75
2022/03/05 00:05:17;;;;;;;41.17;22.63;;;;;;;1.93;68.91;101937.44;4972180;28;20050;-75
2022/03/05 00:07:42;;;;;;;36.50;20.77;;;;;;;1.88;69.19;101935.78;4971525;28;20050;-75
2022/03/05 00:10:09;;;;;;;38.53;22.23;;;;;;;1.86;69.34;101940.16;4972245;28;20387;-75
2022/03/05 00:12:34;;;;;;;40.72;23.55;;;;;;;1.84;69.83;101938.47;4972451;28;20035;-75
2022/03/05 00:15:03;;;;;;;40.13;23.02;;;;;;;1.78;70.11;101942.06;4969715;28;20394;-76
2022/03/05 00:17:28;;;;;;;41.60;21.90;;;;;;;1.76;70.27;101945.56;4972047;28;20538;-77
2022/03/05 00:19:54;;;;;;;38.92;21.75;;;;;;;1.74;70.72;101945.59;4971443;28;20031;-77
2022/03/05 00:22:19;;;;;;;37.47;21.42;;;;;;;1.70;69.72;101946.53;4972054;28;20077;-77
2022/03/05 00:24:45;;;;;;;41.72;23.38;;;;;;;1.67;70.87;101951.78;4972011;28;20050;-74
2022/03/05 00:27:10;;;;;;;42.00;22.38;;;;;;;1.64;70.57;101951.00;4971464;28;20031;-75
2022/03/05 00:29:35;;;;;;;46.00;22.73;;;;;;;1.59;70.62;101948.47;4972466;28;20038;-75
2022/03/05 00:32:01;;;;;;;41.10;23.13;;;;;;;1.58;70.91;101941.56;4970256;28;20050;-76
2022/03/05 00:34:26;;;;;;;42.13;23.38;;;;;;;1.55;70.95;101947.66;4971911;28;20030;-75
2022/03/05 00:36:51;;;;;;;41.42;23.48;;;;;;;1.53;71.71;101943.41;4972245;28;20035;-77
2022/03/05 00:39:17;;;;;;;41.95;23.00;;;;;;;1.51;71.44;101951.22;4972386;28;20057;-76
2022/03/05 00:41:42;;;;;;;43.70;23.83;;;;;;;1.47;71.15;101943.53;4971525;28;20078;-76
2022/03/05 00:44:07;;;;;;;42.53;22.75;;;;;;;1.46;71.47;101947.00;4972039;28;20479;-76
2022/03/05 00:46:33;;;;;;;42.83;23.48;;;;;;;1.43;71.81;101947.91;4972137;28;20559;-76
2022/03/05 00:48:58;;;;;;;41.88;23.38;;;;;;;1.39;71.96;101946.25;4970049;28;20114;-76
2022/03/05 00:51:23;;;;;;;42.85;23.85;;;;;;;1.34;72.57;101942.03;4971747;28;20031;-76
2022/03/05 00:53:49;;;;;;;45.17;24.13;;;;;;;1.35;71.98;101946.34;4971784;28;20035;-75
2022/03/05 00:56:14;;;;;;;45.42;25.98;;;;;;;1.32;72.33;101944.66;4970644;28;20023;-76
2022/03/05 00:58:39;;;;;;;45.65;24.23;;;;;;;1.29;72.06;101944.72;4970990;28;20026;-76
2022/03/05 01:01:05;;;;;;;46.08;24.13;;;;;;;1.28;71.90;101939.56;4971304;28;20026;-76
2022/03/05 01:03:30;;;;;;;46.25;26.40;;;;;;;1.24;72.57;101950.00;4971034;28;20031;-76
2022/03/05 01:05:55;;;;;;;46.25;25.20;;;;;;;1.21;72.69;101947.47;4960083;28;20035;-76
2022/03/05 01:08:21;;;;;;;47.78;25.23;;;;;;;1.20;72.45;101944.88;4952059;28;20110;-76
2022/03/05 01:10:46;;;;;;;44.67;24.83;;;;;;;1.17;72.59;101950.09;4951327;28;20035;-76
2022/03/05 01:13:12;;;;;;;47.42;26.00;;;;;;;1.13;72.82;101949.31;4966440;28;20030;-75
2022/03/05 01:15:37;;;;;;;47.70;27.45;;;;;;;1.12;72.68;101946.75;4951487;28;20027;-76
2022/03/05 01:18:03;;;;;;;50.80;28.00;;;;;;;1.09;72.96;101952.81;4980624;28;20097;-76
2022/03/05 01:20:28;;;;;;;46.88;26.13;;;;;;;1.07;73.15;101941.63;4971329;28;20073;-75
2022/03/05 01:22:53;;;;;;;46.15;25.50;;;;;;;1.04;72.85;101944.28;4969061;28;20050;-75
2022/03/05 01:25:19;;;;;;;47.55;26.88;;;;;;;1.00;73.44;101937.44;4970246;28;20032;-75
2022/03/05 01:27:44;;;;;;;45.45;26.05;;;;;;;0.98;73.20;101943.53;4969608;28;20026;-75
2022/03/05 01:30:10;;;;;;;50.08;26.05;;;;;;;0.94;73.21;101945.31;4969707;28;20066;-74
2022/03/05 01:32:36;;;;;;;46.08;26.33;;;;;;;0.92;73.11;101941.91;4986343;28;20022;-75
2022/03/05 01:35:02;;;;;;;50.45;27.10;;;;;;;0.89;73.53;101949.72;4969643;28;20058;-76
2022/03/05 01:37:27;;;;;;;48.13;26.98;;;;;;;0.87;73.79;101943.72;4969226;28;20062;-75
2022/03/05 01:39:52;;;;;;;52.65;28.10;;;;;;;0.84;73.92;101949.81;4970990;28;20471;-76
2022/03/05 01:42:19;;;;;;;51.35;28.95;;;;;;;0.81;74.15;101944.69;4971120;28;20031;-76
2022/03/05 01:44:45;;;;;;;57.08;30.35;;;;;;;0.79;73.77;101940.38;4970192;28;20131;-76
2022/03/05 01:47:10;;;;;;;52.78;29.13;;;;;;;0.78;73.90;101936.06;4971194;28;20700;-76
2022/03/05 01:49:35;;;;;;;51.53;27.10;;;;;;;0.75;73.90;101942.16;4971365;28;20077;-74
2022/03/05 01:52:01;;;;;;;49.38;28.10;;;;;;;0.72;74.36;101943.94;4969975;28;20031;-75
2022/03/05 01:54:26;;;;;;;47.70;26.98;;;;;;;0.69;74.18;101944.00;4969218;28;20479;-75
2022/03/05 01:56:54;;;;;;;49.67;27.83;;;;;;;0.66;74.22;101938.88;4970786;28;20027;-74
2022/03/05 01:59:20;;;;;;;51.10;28.17;;;;;;;0.61;74.65;101944.97;4969782;28;20026;-75
2022/03/05 02:01:45;;;;;;;49.03;27.42;;;;;;;0.61;74.29;101939.78;4970507;28;20031;-75
2022/03/05 02:04:10;;;;;;;52.38;29.33;;;;;;;0.60;74.23;101940.66;4969880;28;20039;-75
2022/03/05 02:06:36;;;;;;;54.42;28.50;;;;;;;0.54;74.83;101935.59;4969672;28;20019;-75
2022/03/05 02:09:02;;;;;;;52.20;30.42;;;;;;;0.54;74.89;101942.50;4968732;28;20492;-75
2022/03/05 02:11:27;;;;;;;52.28;29.45;;;;;;;0.49;74.80;101939.13;4968779;28;20030;-75
2022/03/05 02:13:53;;;;;;;52.30;28.58;;;;;;;0.46;74.90;101934.84;4984404;28;20401;-74
2022/03/05 02:16:20;;;;;;;52.83;28.83;;;;;;;0.46;75.39;101939.19;4970452;28;20047;-75
2022/03/05 02:18:46;;;;;;;53.67;29.05;;;;;;;0.44;75.44;101933.16;4970154;28;20074;-75
2022/03/05 02:21:13;;;;;;;51.78;28.98;;;;;;;0.41;75.46;101931.47;4969629;28;20034;-75
2022/03/05 02:23:38;;;;;;;52.50;28.30;;;;;;;0.38;76.08;101928.91;4981893;28;20045;-75
2022/03/05 02:26:03;;;;;;;54.90;29.20;;;;;;;0.37;75.74;101922.03;4968300;28;20106;-75
2022/03/05 02:28:30;;;;;;;57.17;30.38;;;;;;;0.33;75.96;101920.34;4970194;28;20387;-75
2022/03/05 02:30:56;;;;;;;52.35;28.80;;;;;;;0.32;76.19;101926.41;4970320;28;20066;-75
2022/03/05 02:33:21;;;;;;;54.97;30.27;;;;;;;0.29;75.96;101916.09;4968886;28;20058;-76
2022/03/05 02:35:47;;;;;;;55.90;30.70;;;;;;;0.28;76.04;101920.44;4970483;28;20054;-75
2022/03/05 02:38:14;;;;;;;58.75;30.50;;;;;;;0.26;75.93;101921.31;4970409;28;20446;-75
2022/03/05 02:40:42;;;;;;;59.97;31.05;;;;;;;0.24;75.88;101921.34;4968198;28;20034;-76
2022/03/05 02:43:08;;;;;;;56.80;30.02;;;;;;;0.21;76.29;101923.13;4970104;28;20019;-75
2022/03/05 02:45:34;;;;;;;54.67;30.85;;;;;;;0.20;76.07;101926.59;4970641;28;20030;-75
2022/03/05 02:48:01;;;;;;;55.70;30.50;;;;;;;0.13;75.98;101928.41;4969412;28;20034;-75
2022/03/05 02:50:27;;;;;;;56.90;30.80;;;;;;;0.12;76.36;101938.78;4970698;28;20031;-75
2022/03/05 02:52:52;;;;;;;59.63;31.98;;;;;;;0.10;76.28;101932.78;4970386;28;20037;-75
2022/03/05 02:55:17;;;;;;;56.25;30.48;;;;;;;0.05;76.88;101930.25;4969199;28;20443;-75
2022/03/05 02:57:44;;;;;;;58.95;31.75;;;;;;;0.06;76.51;101931.09;4969433;28;20105;-75
2022/03/05 03:00:10;;;;;;;57.58;31.05;;;;;;;0.01;77.18;101935.50;4963849;28;20019;-75
2022/03/05 03:02:35;;;;;;;57.15;30.23;;;;;;;-0.03;76.86;101938.09;4966225;28;20085;-75
2022/03/05 03:05:00;;;;;;;61.00;32.03;;;;;;;-0.08;76.61;101934.69;4968620;28;20035;-75
2022/03/05 03:07:26;;;;;;;60.85;31.42;;;;;;;-0.09;77.01;101929.56;4969275;28;20511;-75
2022/03/05 03:09:51;;;;;;;55.13;30.42;;;;;;;-0.11;76.62;101927.00;4969335;28;20027;-75
2022/03/05 03:12:17;;;;;;;54.25;30.02;;;;;;;-0.10;76.62;101933.00;4968725;28;20030;-75
2022/03/05 03:14:42;;;;;;;60.97;32.13;;;;;;;-0.14;76.92;101934.78;4969767;28;20034;-75
2022/03/05 03:17:07;;;;;;;60.70;30.67;;;;;;;-0.18;76.71;101927.94;4970160;28;20077;-74
2022/03/05 03:19:33;;;;;;;58.95;31.65;;;;;;;-0.21;76.98;101927.97;4988334;28;20031;-75
2022/03/05 03:21:58;;;;;;;56.25;30.25;;;;;;;-0.23;77.21;101921.13;4973175;28;20387;-75
2022/03/05 03:24:23;;;;;;;56.92;31.00;;;;;;;-0.27;77.84;101919.44;4972550;28;20114;-75
2022/03/05 03:26:49;;;;;;;59.42;30.98;;;;;;;-0.33;76.92;101925.56;4972900;28;20090;-75
2022/03/05 03:29:14;;;;;;;57.45;31.20;;;;;;;-0.40;76.76;101918.72;4972872;28;20027;-75
2022/03/05 03:31:39;;;;;;;59.40;30.30;;;;;;;-0.49;77.04;101929.16;4972321;28;20127;-74
2022/03/05 03:34:05;;;;;;;56.28;29.20;;;;;;;-0.55;77.08;101922.34;4971539;28;20026;-75
2022/03/05 03:36:30;;;;;;;55.28;29.92;;;;;;;-0.61;77.17;101918.97;4973328;28;20055;-74
2022/03/05 03:38:56;;;;;;;57.58;30.02;;;;;;;-0.64;77.69;101915.53;4972797;28;20096;-75
2022/03/05 03:41:21;;;;;;;57.63;30.38;;;;;;;-0.65;77.88;101913.84;4973003;28;20014;-75
2022/03/05 03:43:46;;;;;;;56.25;29.40;;;;;;;-0.65;77.85;101911.25;4972687;28;20035;-74
2022/03/05 03:46:12;;;;;;;59.30;31.45;;;;;;;-0.69;77.88;101919.91;4973168;28;20035;-74
2022/03/05 03:48:37;;;;;;;57.45;29.13;;;;;;;-0.74;78.00;101919.09;4972921;28;20025;-74
2022/03/05 03:51:03;;;;;;;55.13;29.85;;;;;;;-0.82;78.04;101926.03;4953497;28;20116;-74
2022/03/05 03:53:28;;;;;;;56.08;30.85;;;;;;;-0.86;78.01;101928.69;4973277;28;20042;-74
2022/03/05 03:55:54;;;;;;;58.72;30.33;;;;;;;-0.89;78.45;101928.72;4972970;28;20069;-74
2022/03/05 03:58:19;;;;;;;56.80;30.75;;;;;;;-0.89;78.88;101921.81;4972133;28;20023;-74
2022/03/05 04:00:44;;;;;;;60.70;32.72;;;;;;;-0.88;78.67;101926.09;4972741;28;20030;-75
2022/03/05 04:03:10;;;;;;;58.78;31.85;;;;;;;-0.89;78.36;101919.22;4972516;28;20031;-74
2022/03/05 04:05:35;;;;;;;64.97;33.20;;;;;;;-0.86;78.75;101919.19;4972146;28;20033;-74
2022/03/05 04:10:45;;;;;;;56.83;30.83;;;;;;;-0.87;78.40;101920.06;4971949;28;20050;-74
2022/03/05 04:13:10;;;;;;;56.63;30.80;;;;;;;-0.88;78.53;101915.78;4971784;28;20479;-74
2022/03/05 04:15:35;;;;;;;62.95;32.00;;;;;;;-0.88;78.73;101920.94;4972248;28;20114;-74
2022/03/05 04:18:00;;;;;;;59.58;32.33;;;;;;;-0.89;78.90;101924.41;4971780;28;20113;-74
2022/03/05 04:20:26;;;;;;;59.47;31.25;;;;;;;-0.92;78.33;101928.72;4954509;28;20442;-74
2022/03/05 04:22:51;;;;;;;58.33;30.70;;;;;;;-0.95;78.71;101934.78;4972307;28;20038;-75
2022/03/05 04:25:16;;;;;;;61.38;30.80;;;;;;;-0.95;79.13;101927.03;4970200;28;20026;-74
2022/03/05 04:27:42;;;;;;;63.42;33.10;;;;;;;-0.96;79.00;101923.59;5001980;28;20049;-74
2022/03/05 04:30:08;;;;;;;61.17;32.63;;;;;;;-0.96;79.37;101922.75;4971849;28;20030;-74
2022/03/05 04:32:34;;;;;;;63.92;33.70;;;;;;;-0.97;79.44;101923.63;4972344;28;20066;-75
2022/03/05 04:34:59;;;;;;;65.43;34.30;;;;;;;-0.97;79.17;101932.22;4971524;28;20154;-74
2022/03/05 04:37:24;;;;;;;62.35;31.70;;;;;;;-1.00;79.33;101926.22;4972119;28;20038;-74
2022/03/05 04:39:49;;;;;;;60.78;31.55;;;;;;;-1.03;79.37;101937.44;4972445;28;20356;-74
2022/03/05 04:42:15;;;;;;;60.35;32.65;;;;;;;-1.03;79.65;101937.44;4970813;28;20035;-74
2022/03/05 04:44:41;;;;;;;66.75;33.70;;;;;;;-1.05;79.98;101938.34;4965302;28;20143;-74
2022/03/05 04:47:06;;;;;;;67.15;33.83;;;;;;;-1.04;79.31;101940.91;4952154;28;20106;-74
2022/03/05 04:49:32;;;;;;;70.60;33.95;;;;;;;-1.06;79.51;101940.06;4952881;28;20078;-74
2022/03/05 04:51:57;;;;;;;64.15;32.63;;;;;;;-1.07;79.40;101938.34;4964051;28;20029;-74
2022/03/05 04:54:25;;;;;;;64.13;32.55;;;;;;;-1.06;79.82;101936.63;4971420;28;20031;-74
2022/03/05 04:56:50;;;;;;;78.20;38.50;;;;;;;-1.07;79.53;101937.50;4972080;28;20019;-74
2022/03/05 04:59:16;;;;;;;81.70;38.67;;;;;;;-1.07;79.77;101940.06;4971852;28;20468;-74
2022/03/05 05:01:41;;;;;;;86.25;39.50;;;;;;;-1.09;80.06;101941.81;4968372;28;20046;-74
2022/03/05 05:04:06;;;;;;;75.30;35.35;;;;;;;-1.08;79.39;101940.94;4971643;28;20074;-74
2022/03/05 05:06:32;;;;;;;81.78;37.00;;;;;;;-1.09;79.63;101944.41;4970676;28;20109;-75
2022/03/05 05:08:58;;;;;;;74.13;33.83;;;;;;;-1.09;79.97;101941.81;4968698;28;20030;-74
2022/03/05 05:11:23;;;;;;;75.25;36.22;;;;;;;-1.12;80.02;101939.25;4970687;28;20030;-74
2022/03/05 05:13:49;;;;;;;80.55;37.65;;;;;;;-1.12;80.27;101941.84;4971001;28;20081;-74
2022/03/05 05:16:14;;;;;;;65.55;33.67;;;;;;;-1.13;80.27;101938.41;4969977;28;20054;-74
2022/03/05 05:19:24;;;;;;;68.18;34.17;;;;;;;-1.14;80.49;101941.00;4969264;28;20494;-74
2022/03/05 05:21:25;;;;;;;76.05;36.65;;;;;;;-1.16;80.53;101947.91;4970832;28;20031;-74
2022/03/05 05:23:50;;;;;;;80.15;35.67;;;;;;;-1.17;80.65;101943.59;4969973;28;20380;-74
2022/03/05 05:26:15;;;;;;;75.20;35.55;;;;;;;-1.19;80.26;101940.19;4970784;28;20027;-74
2022/03/05 05:28:41;;;;;;;73.28;35.28;;;;;;;-1.20;80.59;101944.50;4968763;28;20521;-74
2022/03/05 05:31:06;;;;;;;80.82;36.30;;;;;;;-1.21;80.91;101950.47;4970065;28;20038;-74
2022/03/05 05:33:31;;;;;;;75.93;35.97;;;;;;;-1.24;80.68;101960.84;4969797;28;20073;-74
2022/03/05 05:35:57;;;;;;;63.70;32.88;;;;;;;-1.26;80.58;101955.69;4964043;28;20086;-74
2022/03/05 05:38:22;;;;;;;70.35;34.35;;;;;;;-1.27;80.79;101959.13;4993177;28;20065;-74
2022/03/05 05:40:47;;;;;;;71.88;33.97;;;;;;;-1.28;81.03;101965.16;4968733;28;20050;-74
2022/03/05 05:43:12;;;;;;;71.93;33.83;;;;;;;-1.29;80.76;101971.19;4969544;28;20102;-74
2022/03/05 05:45:38;;;;;;;69.25;33.88;;;;;;;-1.32;80.92;101966.06;4968957;28;20030;-74
2022/03/05 05:48:03;;;;;;;68.15;33.30;;;;;;;-1.33;81.06;101969.50;4970902;28;20543;-74
2022/03/05 05:50:29;;;;;;;70.07;34.40;;;;;;;-1.34;81.39;101970.38;4970777;28;20034;-74
2022/03/05 05:52:54;;;;;;;70.20;34.00;;;;;;;-1.34;81.46;101972.09;4970699;28;20038;-74
2022/03/05 05:55:20;;;;;;;66.95;33.75;;;;;;;-1.34;81.27;101977.25;4969132;28;20398;-74
2022/03/05 05:57:45;;;;;;;64.18;32.80;;;;;;;-1.36;81.06;101977.28;4970160;28;20118;-74
2022/03/05 06:00:11;;;;;;;68.57;33.03;;;;;;;-1.37;81.14;101974.72;4970926;28;20411;-74
2022/03/05 06:02:37;;;;;;;65.45;31.52;;;;;;;-1.36;81.29;101976.44;4970980;28;20030;-75
2022/03/05 06:05:02;;;;;;;66.93;31.58;;;;;;;-1.38;81.34;101980.75;4970383;28;20023;-74
2022/03/05 06:07:27;;;;;;;64.90;32.03;;;;;;;-1.40;81.13;101967.00;4986187;28;20045;-74
2022/03/05 06:09:53;;;;;;;68.90;32.83;;;;;;;-1.41;81.16;101973.88;4969973;28;20097;-74
2022/03/05 06:12:18;;;;;;;66.07;32.58;;;;;;;-1.40;81.33;101973.00;4983148;28;20038;-73
2022/03/05 06:14:44;;;;;;;71.30;35.65;;;;;;;-1.40;81.09;101967.00;4985685;28;20062;-74
2022/03/05 06:17:09;;;;;;;65.70;33.40;;;;;;;-1.42;80.98;101974.75;4970687;28;20023;-73
2022/03/05 06:19:35;;;;;;;68.65;32.28;;;;;;;-1.43;81.44;101967.00;4970577;28;20047;-74
2022/03/05 06:22:00;;;;;;;64.63;32.03;;;;;;;-1.42;81.32;101968.72;4970685;28;20082;-74
2022/03/05 06:24:26;;;;;;;61.60;31.77;;;;;;;-1.44;81.26;101968.75;4985748;28;20455;-74
2022/03/05 06:26:51;;;;;;;63.95;33.03;;;;;;;-1.44;81.30;101975.63;4969965;28;20489;-75
2022/03/05 06:29:16;;;;;;;66.07;31.83;;;;;;;-1.47;81.63;101971.34;4968640;28;20022;-75
2022/03/05 06:31:42;;;;;;;70.40;33.92;;;;;;;-1.47;81.44;101973.91;4969613;28;20058;-74
2022/03/05 06:34:07;;;;;;;75.97;36.60;;;;;;;-1.48;81.30;101979.09;4984167;28;20024;-75
2022/03/05 06:36:33;;;;;;;78.70;36.28;;;;;;;-1.51;81.95;101982.53;4970033;28;20109;-74
2022/03/05 06:38:58;;;;;;;78.25;37.42;;;;;;;-1.50;81.63;101986.00;4968896;28;20391;-75
2022/03/05 06:41:24;;;;;;;76.50;36.35;;;;;;;-1.53;81.68;101981.69;4963261;28;20031;-75
2022/03/05 06:43:49;;;;;;;89.82;42.33;;;;;;;-1.54;81.95;101980.00;4969416;28;20022;-74
2022/03/05 06:46:15;;;;;;;84.15;40.25;;;;;;;-1.52;81.65;101980.84;4969610;28;20027;-75
2022/03/05 06:48:40;;;;;;;84.60;39.40;;;;;;;-1.54;82.16;101985.16;4999535;28;20121;-75
2022/03/05 06:51:05;;;;;;;123.28;52.88;;;;;;;-1.52;82.16;101992.88;4970248;28;20110;-75
2022/03/05 06:53:31;;;;;;;127.85;61.70;;;;;;;-1.53;81.80;101986.88;4972941;28;20018;-74
2022/03/05 06:55:56;;;;;;;95.00;47.30;;;;;;;-1.52;81.71;101986.00;4973054;28;20109;-75
2022/03/05 06:58:21;;;;;;;73.03;36.40;;;;;;;-1.52;82.41;101985.13;4971763;28;20073;-76
2022/03/05 07:00:46;;;;;;;74.72;38.80;;;;;;;-1.53;82.05;101981.69;4972019;28;20142;-75
2022/03/05 07:03:12;;;;;;;68.93;35.63;;;;;;;-1.52;82.28;101983.41;4971054;28;20033;-75
2022/03/05 07:05:37;;;;;;;79.07;38.60;;;;;;;-1.50;82.32;101997.16;4972952;28;20025;-75
2022/03/05 07:08:03;;;;;;;78.20;42.20;;;;;;;-1.48;82.27;101999.75;4971626;28;20484;-75
2022/03/05 07:10:28;;;;;;;68.20;33.75;;;;;;;-1.49;82.31;102004.03;4986179;28;20054;-75
2022/03/05 07:12:54;;;;;;;64.82;32.30;;;;;;;-1.47;82.87;101996.28;4972073;28;20035;-75
2022/03/05 07:15:19;;;;;;;70.30;31.95;;;;;;;-1.46;82.75;102003.16;4972620;28;20019;-75
2022/03/05 07:17:49;;;;;;;70.57;32.17;;;;;;;-1.47;83.36;102004.03;4973580;28;20391;-75
2022/03/05 07:20:14;;;;;;;71.88;32.08;;;;;;;-1.45;83.07;102004.88;4972595;28;20391;-75
2022/03/05 07:22:40;;;;;;;70.10;31.77;;;;;;;-1.43;83.33;102014.31;4972605;28;20037;-75
2022/03/05 07:25:06;;;;;;;65.65;32.20;;;;;;;-1.41;83.17;102017.75;4973227;28;20483;-75
2022/03/05 07:27:31;;;;;;;69.50;31.65;;;;;;;-1.38;83.44;102020.31;4973525;28;20142;-75
2022/03/05 07:29:56;;;;;;;72.00;33.78;;;;;;;-1.34;82.92;102016.00;4972701;28;20085;-75
2022/03/05 07:32:22;;;;;;;69.50;33.00;;;;;;;-1.32;83.75;102019.41;4972277;28;20061;-75
2022/03/05 07:34:47;;;;;;;70.43;32.45;;;;;;;-1.28;83.61;102016.81;4972327;28;20081;-75
2022/03/05 07:37:12;;;;;;;72.80;33.28;;;;;;;-1.24;83.72;102020.22;4972260;28;20170;-75
2022/03/05 07:39:38;;;;;;;67.63;33.30;;;;;;;-1.21;83.53;102009.88;4972699;28;20054;-74
2022/03/05 07:42:04;;;;;;;69.93;32.83;;;;;;;-1.18;84.26;102014.19;4973005;28;20026;-75
2022/03/05 07:44:30;;;;;;;69.38;33.30;;;;;;;-1.14;84.17;102016.72;4972592;28;20034;-75
2022/03/05 07:46:55;;;;;;;79.35;33.47;;;;;;;-1.08;84.12;102026.16;4972817;28;20023;-74
2022/03/05 07:49:21;;;;;;;72.28;33.08;;;;;;;-1.05;83.89;102015.81;4972892;28;20026;-75
2022/03/05 07:51:46;;;;;;;70.90;32.78;;;;;;;-1.00;83.54;102008.88;4971678;28;20026;-75
2022/03/05 07:54:12;;;;;;;72.10;33.28;;;;;;;-0.95;83.83;102007.09;4971514;28;20054;-75
2022/03/05 07:56:37;;;;;;;71.15;33.10;;;;;;;-0.91;83.50;102013.97;4972250;28;20019;-75
2022/03/05 07:59:03;;;;;;;68.53;32.45;;;;;;;-0.86;83.59;102016.50;4971473;28;20023;-75
2022/03/05 08:01:28;;;;;;;75.78;33.15;;;;;;;-0.80;83.40;102022.50;4972553;28;20094;-75
2022/03/05 08:03:54;;;;;;;69.72;32.72;;;;;;;-0.74;83.40;102025.03;4985205;28;20031;-74
2022/03/05 08:06:19;;;;;;;74.00;32.83;;;;;;;-0.66;82.90;102031.00;4972771;28;20085;-74
2022/03/05 08:08:44;;;;;;;74.53;33.92;;;;;;;-0.58;83.23;102032.66;4972165;28;20030;-74
2022/03/05 08:11:11;;;;;;;70.25;32.65;;;;;;;-0.53;82.61;102041.22;4986768;28;20042;-74
2022/03/05 08:13:37;;;;;;;72.05;31.20;;;;;;;-0.44;82.12;102044.56;4972441;28;20054;-75
2022/03/05 08:16:02;;;;;;;71.57;31.48;;;;;;;-0.37;82.11;102050.56;4972377;28;20051;-74
2022/03/05 08:18:27;;;;;;;76.38;32.15;;;;;;;-0.32;81.30;102048.78;4987089;28;20022;-75
2022/03/05 08:20:53;;;;;;;68.15;30.42;;;;;;;-0.25;80.92;102047.84;4985792;28;20491;-74
2022/03/05 08:23:18;;;;;;;65.40;30.42;;;;;;;-0.19;80.95;102050.38;5003589;28;20022;-74
2022/03/05 08:25:44;;;;;;;68.82;30.98;;;;;;;-0.12;81.25;102054.59;4971893;28;20026;-75
2022/03/05 08:28:09;;;;;;;70.43;31.88;;;;;;;-0.05;80.78;102051.06;4972322;28;20493;-75
2022/03/05 08:30:34;;;;;;;67.28;29.60;;;;;;;0.02;80.26;102045.84;4958096;28;82859;-74
2022/03/05 08:33:03;;;;;;;65.35;30.75;;;;;;;0.07;80.47;102055.28;5006271;28;20474;-74
2022/03/05 08:35:28;;;;;;;69.10;31.50;;;;;;;0.14;80.09;102056.91;5003770;28;20076;-75
2022/03/05 08:37:54;;;;;;;70.50;31.30;;;;;;;0.20;79.65;102050.81;4998193;28;20030;-75
2022/03/05 08:40:20;;;;;;;64.72;30.15;;;;;;;0.25;79.22;102049.00;5010253;28;20022;-75
2022/03/05 08:42:48;;;;;;;64.07;30.77;;;;;;;0.32;79.10;102046.31;5009820;28;20028;-75
2022/03/05 08:45:13;;;;;;;67.55;30.38;;;;;;;0.40;79.29;102048.84;5010783;28;20268;-75
2022/03/05 08:47:39;;;;;;;65.78;30.90;;;;;;;0.48;78.40;102047.00;5008878;28;20115;-75
2022/03/05 08:50:06;;;;;;;68.15;30.92;;;;;;;0.56;78.64;102046.91;5010509;28;20032;-74
2022/03/05 08:52:36;;;;;;;66.70;31.23;;;;;;;0.63;78.37;102057.16;5010365;28;20026;-74
2022/03/05 08:55:10;;;;;;;65.32;31.27;;;;;;;0.72;78.54;102045.81;5008988;28;20037;-75
2022/03/05 08:57:36;;;;;;;65.85;31.48;;;;;;;0.80;77.49;102043.09;5006015;28;20508;-75
2022/03/05 09:00:01;;;;;;;65.47;30.45;;;;;;;0.88;77.81;102047.31;5008058;28;20029;-75
2022/03/05 09:02:27;;;;;;;62.97;30.75;;;;;;;0.97;76.93;102046.31;5009733;28;20026;-75
2022/03/05 09:04:52;;;;;;;61.40;29.88;;;;;;;1.06;76.70;102051.34;5009234;28;20554;-74
2022/03/05 09:07:18;;;;;;;63.42;29.42;;;;;;;1.14;76.44;102049.50;5009131;28;20025;-75
2022/03/05 09:09:43;;;;;;;57.80;29.23;;;;;;;1.23;76.34;102054.56;5009717;28;20105;-75
2022/03/05 09:12:09;;;;;;;64.55;31.15;;;;;;;1.30;75.66;102055.31;5010073;28;20026;-75
2022/03/05 09:14:34;;;;;;;61.50;30.05;;;;;;;1.42;76.04;102055.09;5007818;28;20038;-75
2022/03/05 09:16:59;;;;;;;65.47;30.20;;;;;;;1.51;74.75;102048.91;5009772;28;20437;-75
2022/03/05 09:19:25;;;;;;;64.40;30.20;;;;;;;1.61;75.43;102054.81;5009602;28;20045;-75
2022/03/05 09:21:50;;;;;;;66.57;30.38;;;;;;;1.68;74.65;102046.03;5009362;28;20018;-75
2022/03/05 09:24:15;;;;;;;63.10;30.50;;;;;;;1.78;74.39;102048.41;5008185;28;20026;-75
2022/03/05 09:26:41;;;;;;;66.28;31.67;;;;;;;1.88;74.36;102039.56;5009549;28;20075;-75
2022/03/05 09:29:06;;;;;;;62.17;29.88;;;;;;;1.95;73.14;102040.31;5009239;28;20049;-76
2022/03/05 09:31:32;;;;;;;65.43;30.45;;;;;;;2.06;72.61;102040.97;4992476;28;20041;-74
2022/03/05 09:33:57;;;;;;;60.75;29.70;;;;;;;2.15;73.25;102037.34;5006664;28;20037;-74
2022/03/05 09:36:25;;;;;;;59.80;28.77;;;;;;;2.26;72.45;102035.38;5008854;28;20046;-73
2022/03/05 09:38:51;;;;;;;60.53;29.35;;;;;;;2.34;71.88;102033.47;5011481;28;20470;-75
2022/03/05 09:41:16;;;;;;;63.50;30.45;;;;;;;2.44;72.25;102035.00;5009552;28;20112;-74
2022/03/05 09:43:43;;;;;;;63.13;29.88;;;;;;;2.55;71.18;102036.53;5005875;28;20034;-75
2022/03/05 09:46:09;;;;;;;61.38;29.67;;;;;;;2.67;71.62;102025.84;5006039;28;20109;-75
2022/03/05 09:48:39;;;;;;;63.88;30.33;;;;;;;2.80;71.29;102024.69;5002685;28;20423;-77
2022/03/05 09:51:04;;;;;;;61.17;29.40;;;;;;;2.93;71.65;102028.72;5002484;28;20486;-77
2022/03/05 09:53:31;;;;;;;61.70;30.13;;;;;;;3.00;69.32;102030.28;5006588;28;20025;-74
2022/03/05 09:55:57;;;;;;;63.63;29.63;;;;;;;3.10;68.68;102026.56;5008114;28;20221;-77
2022/03/05 09:58:22;;;;;;;61.22;30.52;;;;;;;3.26;68.98;102023.63;5002650;28;20034;-75
2022/03/05 10:00:48;;;;;;;57.63;28.67;;;;;;;3.36;68.88;102030.28;5004980;28;20080;-75
2022/03/05 10:03:14;;;;;;;54.83;27.48;;;;;;;3.45;66.85;102032.66;5005731;28;20692;-75
2022/03/05 10:05:40;;;;;;;57.47;29.13;;;;;;;3.54;66.01;102026.34;5005719;28;20470;-74
2022/03/05 10:08:15;;;;;;;56.33;28.63;;;;;;;3.61;65.90;102031.38;5003517;28;20077;-75
2022/03/05 10:10:47;;;;;;;59.10;29.50;;;;;;;3.72;65.86;102036.31;5007409;28;20526;-75
2022/03/05 10:13:22;;;;;;;54.85;29.10;;;;;;;3.87;67.40;102029.81;5006721;28;20029;-76
2022/03/05 10:15:49;;;;;;;55.63;28.77;;;;;;;3.96;64.97;102026.97;5005971;28;20029;-75
2022/03/05 10:18:15;;;;;;;56.03;29.05;;;;;;;4.14;67.40;102029.06;5006022;28;20513;-75
2022/03/05 10:20:50;;;;;;;55.05;27.42;;;;;;;4.29;65.57;102027.75;5003898;28;20022;-75
2022/03/05 10:23:18;;;;;;;52.70;27.48;;;;;;;4.43;66.48;102024.78;5006465;28;20034;-75
2022/03/05 10:25:49;;;;;;;54.20;27.65;;;;;;;4.59;64.61;102018.19;5005167;28;20046;-75
2022/03/05 10:28:19;;;;;;;49.08;26.45;;;;;;;4.72;63.28;102012.56;5006645;28;20022;-75
2022/03/05 10:30:46;;;;;;;50.63;27.50;;;;;;;4.92;65.43;102013.69;5010677;28;20029;-75
2022/03/05 10:33:36;;;;;;;55.65;27.73;;;;;;;5.03;62.93;102022.88;5000112;28;20030;-75
2022/03/05 10:36:06;;;;;;;49.53;27.10;;;;;;;5.23;61.92;102018.78;5004837;28;20089;-75
2022/03/05 10:39:09;;;;;;;52.58;27.55;;;;;;;5.39;63.24;102019.97;4997258;28;20030;-75
2022/03/05 10:41:40;;;;;;;52.58;27.58;;;;;;;5.60;62.26;102032.31;4996778;28;20450;-75
2022/03/05 10:44:17;;;;;;;50.08;26.90;;;;;;;5.79;60.58;102018.59;4992878;28;20027;-75
2022/03/05 10:46:48;;;;;;;50.30;25.75;;;;;;;5.99;60.88;102010.94;4992120;28;20038;-75
2022/03/05 10:49:20;;;;;;;49.83;26.98;;;;;;;6.26;59.61;102009.94;4994379;28;20054;-75
2022/03/05 10:51:47;;;;;;;47.67;26.33;;;;;;;6.44;57.15;102005.78;5012284;28;20069;-75
2022/03/05 10:54:24;;;;;;;49.38;25.65;;;;;;;6.68;58.21;102018.81;5011940;28;20397;-75
2022/03/05 10:56:49;;;;;;;46.33;26.15;;;;;;;6.91;55.41;102019.63;5013138;28;20394;-75
2022/03/05 10:59:16;;;;;;;52.55;25.80;;;;;;;7.01;55.48;102009.63;5011288;28;20044;-75
2022/03/05 11:01:43;;;;;;;47.55;27.13;;;;;;;7.17;55.09;102012.47;5011321;28;20116;-75
2022/03/05 11:04:10;;;;;;;46.83;25.38;;;;;;;7.40;54.43;102016.75;5012267;28;20371;-75
2022/03/05 11:06:43;;;;;;;48.22;25.80;;;;;;;7.68;55.93;102013.84;5011306;28;20504;-75
2022/03/05 11:09:13;;;;;;;48.40;26.45;;;;;;;7.91;53.42;102013.66;5008885;28;20076;-75
2022/03/05 11:11:41;;;;;;;50.80;28.52;;;;;;;8.09;52.41;102018.09;5012209;28;20030;-75